createdAt,value
2023-01-13T00:01:16.551Z,61.60
2023-01-13T00:03:43.603Z,59.42
2023-01-13T00:06:14.172Z,60.38
2023-01-13T00:08:40.705Z,74.45
2023-01-13T00:11:07.204Z,58.80
2023-01-13T00:13:35.447Z,54.22
2023-01-13T00:16:04.129Z,51.20
2023-01-13T00:18:30.652Z,55.00
2023-01-13T00:21:01.875Z,47.50
2023-01-13T00:23:31.549Z,48.92
2023-01-13T00:26:02.772Z,50.50
2023-01-13T00:28:29.332Z,51.28
2023-01-13T00:30:58.373Z,47.70
2023-01-13T00:33:25.784Z,43.63
2023-01-13T00:35:59.748Z,45.83
2023-01-13T00:38:26.721Z,41.85
2023-01-13T00:41:08.784Z,40.28
2023-01-13T00:43:36.616Z,41.22
2023-01-13T00:46:05.119Z,43.95
2023-01-13T00:48:32.579Z,40.78
2023-01-13T00:51:01.587Z,43.17
2023-01-13T00:53:29.455Z,42.47
2023-01-13T00:56:04.650Z,40.88
2023-01-13T00:58:33.218Z,43.05
2023-01-13T01:01:01.554Z,39.75
2023-01-13T01:03:29.282Z,36.38
2023-01-13T01:05:56.646Z,31.67
2023-01-13T01:08:23.679Z,33.60
2023-01-13T01:10:50.205Z,42.08
2023-01-13T01:13:17.456Z,39.47
2023-01-13T01:15:44.687Z,39.17
2023-01-13T01:18:11.486Z,41.10
2023-01-13T01:20:37.968Z,46.35
2023-01-13T01:23:04.684Z,47.47
2023-01-13T01:25:32.774Z,35.97
2023-01-13T01:27:59.687Z,41.90
2023-01-13T01:30:26.250Z,39.65
2023-01-13T01:32:52.747Z,37.30
2023-01-13T01:35:19.283Z,41.67
2023-01-13T01:37:45.775Z,38.78
2023-01-13T01:40:12.572Z,42.78
2023-01-13T01:42:57.871Z,42.72
2023-01-13T01:45:26.917Z,40.80
2023-01-13T01:47:59.299Z,39.08
2023-01-13T01:50:26.704Z,27.08
2023-01-13T01:53:04.469Z,23.13
2023-01-13T01:55:34.687Z,18.15
2023-01-13T01:58:15.396Z,14.05
2023-01-13T02:00:42.147Z,9.45
2023-01-13T02:03:09.655Z,10.32
2023-01-13T02:05:36.228Z,8.55
2023-01-13T02:08:03.900Z,7.00
2023-01-13T02:10:32.193Z,7.57
2023-01-13T02:13:05.969Z,7.47
2023-01-13T02:15:41.607Z,6.80
2023-01-13T02:18:30.027Z,7.20
2023-01-13T02:21:02.850Z,9.30
2023-01-13T02:24:12.872Z,8.15
2023-01-13T02:26:42.230Z,7.18
2023-01-13T02:30:04.994Z,7.80
2023-01-13T02:32:47.672Z,10.20
2023-01-13T02:35:22.692Z,9.98
2023-01-13T02:37:50.631Z,8.05
2023-01-13T02:40:27.355Z,9.60
2023-01-13T02:43:26.846Z,10.45
2023-01-13T02:46:04.898Z,8.38
2023-01-13T02:48:32.275Z,9.18
2023-01-13T02:51:12.208Z,9.30
2023-01-13T02:53:47.908Z,8.35
2023-01-13T02:56:16.426Z,9.60
2023-01-13T02:58:45.516Z,10.55
2023-01-13T03:01:11.926Z,10.95
2023-01-13T03:03:38.365Z,14.07
2023-01-13T03:06:16.783Z,10.52
2023-01-13T03:08:54.863Z,10.55
2023-01-13T03:11:21.921Z,10.10
2023-01-13T03:14:08.480Z,12.13
2023-01-13T03:16:47.686Z,12.25
2023-01-13T03:19:29.110Z,9.90
2023-01-13T03:22:06.117Z,12.10
2023-01-13T03:24:38.824Z,10.98
2023-01-13T03:27:33.503Z,15.60
2023-01-13T03:30:21.964Z,13.90
2023-01-13T03:32:52.885Z,10.25
2023-01-13T03:35:25.605Z,10.55
2023-01-13T03:37:58.522Z,11.43
2023-01-13T03:40:35.476Z,13.05
2023-01-13T03:43:30.433Z,11.63
2023-01-13T03:48:29.388Z,11.57
2023-01-13T03:51:03.171Z,14.93
2023-01-13T03:53:35.968Z,11.45
2023-01-13T03:56:10.885Z,11.38
2023-01-13T03:58:44.529Z,11.57
2023-01-13T04:01:22.734Z,14.75
2023-01-13T04:03:55.594Z,11.35
2023-01-13T04:06:21.891Z,12.88
2023-01-13T04:08:54.594Z,12.25
2023-01-13T04:11:37.872Z,13.77
2023-01-13T04:14:07.261Z,12.60
2023-01-13T04:16:35.197Z,16.83
2023-01-13T04:19:02.605Z,15.45
2023-01-13T04:21:30.562Z,13.15
2023-01-13T04:23:56.888Z,18.50
2023-01-13T04:26:24.269Z,16.52
2023-01-13T04:28:51.872Z,14.02
2023-01-13T04:31:18.279Z,16.67
2023-01-13T04:33:44.615Z,17.05
2023-01-13T04:36:10.960Z,14.70
2023-01-13T04:38:37.278Z,18.10
2023-01-13T04:41:03.679Z,14.80
2023-01-13T04:43:30.022Z,16.85
2023-01-13T04:45:56.405Z,17.08
2023-01-13T04:48:22.768Z,20.60
2023-01-13T04:50:49.125Z,22.17
2023-01-13T04:53:15.460Z,18.13
2023-01-13T04:55:41.790Z,20.98
2023-01-13T04:58:09.843Z,19.52
2023-01-13T05:00:36.914Z,20.55
2023-01-13T05:03:04.138Z,18.35
2023-01-13T05:05:30.959Z,21.90
2023-01-13T05:07:58.017Z,16.33
2023-01-13T05:10:27.044Z,18.00
2023-01-13T05:13:12.050Z,27.25
2023-01-13T05:15:59.343Z,14.55
2023-01-13T05:18:26.990Z,19.17
2023-01-13T05:20:53.395Z,17.42
2023-01-13T05:23:38.537Z,14.75
2023-01-13T05:26:05.441Z,15.27
2023-01-13T05:28:33.470Z,15.65
2023-01-13T05:31:00.227Z,14.63
2023-01-13T05:33:26.630Z,14.15
2023-01-13T05:35:53.036Z,13.25
2023-01-13T05:38:19.555Z,17.75
2023-01-13T05:41:04.668Z,17.52
2023-01-13T05:44:04.075Z,14.00
2023-01-13T05:46:30.410Z,13.55
2023-01-13T05:48:56.760Z,14.60
2023-01-13T05:51:26.260Z,13.57
2023-01-13T05:53:53.090Z,14.05
2023-01-13T05:56:19.551Z,14.82
2023-01-13T05:58:46.103Z,10.95
2023-01-13T06:01:12.531Z,15.57
2023-01-13T06:03:38.952Z,10.07
2023-01-13T06:06:05.948Z,10.75
2023-01-13T06:08:32.787Z,9.75
2023-01-13T06:10:59.450Z,13.50
2023-01-13T06:13:26.330Z,11.63
2023-01-13T06:15:57.511Z,9.15
2023-01-13T06:18:24.254Z,12.75
2023-01-13T06:20:50.630Z,9.65
2023-01-13T06:23:17.016Z,9.70
2023-01-13T06:26:01.875Z,9.52
2023-01-13T06:28:28.247Z,12.18
2023-01-13T06:30:59.990Z,14.65
2023-01-13T06:33:35.541Z,11.27
2023-01-13T06:36:15.492Z,11.35
2023-01-13T06:38:47.143Z,14.27
2023-01-13T06:41:14.039Z,9.45
2023-01-13T06:43:40.880Z,12.57
2023-01-13T06:46:07.619Z,10.68
2023-01-13T06:48:35.287Z,9.23
2023-01-13T06:51:03.354Z,9.30
2023-01-13T06:53:29.776Z,12.25
2023-01-13T06:55:56.094Z,10.75
2023-01-13T06:58:22.446Z,8.00
2023-01-13T07:00:51.202Z,11.13
2023-01-13T07:03:18.626Z,9.65
2023-01-13T07:05:52.513Z,9.30
2023-01-13T07:08:18.991Z,13.02
2023-01-13T07:10:45.459Z,8.45
2023-01-13T07:13:30.531Z,13.15
2023-01-13T07:15:59.309Z,8.32
2023-01-13T07:18:27.677Z,10.50
2023-01-13T07:20:56.649Z,10.55
2023-01-13T07:23:24.024Z,8.75
2023-01-13T07:25:50.930Z,10.98
2023-01-13T07:28:17.837Z,8.73
2023-01-13T07:30:44.418Z,9.55
2023-01-13T07:33:10.790Z,8.77
2023-01-13T07:35:37.139Z,10.52
2023-01-13T07:38:03.485Z,10.85
2023-01-13T07:40:29.817Z,10.23
2023-01-13T07:43:14.893Z,8.50
2023-01-13T07:45:41.226Z,10.10
2023-01-13T07:48:07.654Z,11.52
2023-01-13T07:50:35.323Z,9.48
2023-01-13T07:53:01.923Z,10.20
2023-01-13T07:55:28.285Z,9.90
2023-01-13T07:57:54.744Z,9.57
2023-01-13T08:00:21.594Z,10.57
2023-01-13T08:02:48.091Z,11.30
2023-01-13T08:05:14.598Z,12.40
2023-01-13T08:07:40.964Z,10.82
2023-01-13T08:10:07.715Z,10.90
2023-01-13T08:12:56.471Z,13.68
2023-01-13T08:15:23.350Z,12.35
2023-01-13T08:17:49.935Z,12.20
2023-01-13T08:20:16.510Z,13.43
2023-01-13T08:22:44.162Z,13.68
2023-01-13T08:25:10.494Z,15.43
2023-01-13T08:27:37.033Z,15.68
2023-01-13T08:30:04.463Z,12.07
2023-01-13T08:32:30.938Z,12.63
2023-01-13T08:34:57.340Z,13.75
2023-01-13T08:37:23.664Z,14.35
2023-01-13T08:39:50.090Z,15.10
2023-01-13T08:42:16.447Z,15.70
2023-01-13T08:44:42.856Z,17.10
2023-01-13T08:47:09.306Z,13.15
2023-01-13T08:49:35.695Z,14.35
2023-01-13T08:52:02.032Z,15.65
2023-01-13T08:54:28.415Z,18.77
2023-01-13T08:56:57.371Z,14.30
2023-01-13T08:59:23.818Z,14.90
2023-01-13T09:01:50.432Z,13.75
2023-01-13T09:04:19.872Z,16.27
2023-01-13T09:06:46.953Z,17.13
2023-01-13T09:09:13.575Z,21.98
2023-01-13T09:12:04.070Z,20.70
2023-01-13T09:14:33.166Z,22.40
2023-01-13T09:16:59.986Z,21.00
2023-01-13T09:19:27.005Z,17.13
2023-01-13T09:21:54.907Z,38.67
2023-01-13T09:24:23.181Z,18.77
2023-01-13T09:26:49.971Z,12.82
2023-01-13T09:29:17.416Z,20.90
2023-01-13T09:31:46.482Z,17.10
2023-01-13T09:34:34.506Z,15.68
2023-01-13T09:37:01.201Z,16.10
2023-01-13T09:39:28.784Z,17.15
2023-01-13T09:42:16.834Z,21.27
2023-01-13T09:44:52.463Z,24.83
2023-01-13T09:47:25.870Z,19.73
2023-01-13T09:49:59.344Z,20.90
2023-01-13T09:52:27.734Z,21.00
2023-01-13T09:55:05.899Z,17.95
2023-01-13T09:57:36.704Z,15.10
2023-01-13T10:00:21.628Z,14.43
2023-01-13T10:02:56.999Z,16.50
2023-01-13T10:05:44.906Z,17.75
2023-01-13T10:08:21.822Z,21.95
2023-01-13T10:10:51.198Z,20.58
2023-01-13T10:13:23.551Z,12.65
2023-01-13T10:16:15.306Z,18.70
2023-01-13T10:19:05.968Z,11.52
2023-01-13T10:22:07.253Z,16.77
2023-01-13T10:25:20.574Z,16.40
2023-01-13T10:27:52.912Z,19.17
2023-01-13T10:30:32.737Z,21.27
2023-01-13T10:33:21.190Z,17.15
2023-01-13T10:36:00.620Z,16.60
2023-01-13T10:38:27.046Z,18.70
2023-01-13T10:40:54.949Z,13.50
2023-01-13T10:43:21.999Z,22.80
2023-01-13T10:45:58.919Z,16.25
2023-01-13T10:48:36.936Z,14.30
2023-01-13T10:51:20.814Z,15.65
2023-01-13T10:53:52.633Z,23.55
2023-01-13T10:56:20.839Z,20.20
2023-01-13T10:58:47.836Z,16.75
2023-01-13T11:01:25.955Z,15.57
2023-01-13T11:03:56.236Z,15.07
2023-01-13T11:06:30.511Z,13.65
2023-01-13T11:11:27.503Z,15.95
2023-01-13T11:14:15.637Z,13.30
2023-01-13T11:16:53.132Z,16.70
2023-01-13T11:19:23.926Z,16.27
2023-01-13T11:22:01.537Z,16.60
2023-01-13T11:25:01.394Z,20.58
2023-01-13T11:27:30.690Z,15.27
2023-01-13T11:30:22.842Z,18.55
2023-01-13T11:33:14.129Z,16.42
2023-01-13T11:36:09.739Z,20.35
2023-01-13T11:38:44.438Z,15.25
2023-01-13T11:42:14.522Z,14.35
2023-01-13T11:44:48.661Z,15.90
2023-01-13T11:47:20.942Z,12.27
2023-01-13T11:49:48.548Z,16.25
2023-01-13T11:52:21.748Z,19.15
2023-01-13T11:55:09.723Z,15.23
2023-01-13T11:57:49.926Z,19.55
2023-01-13T12:00:38.227Z,15.18
2023-01-13T12:03:31.349Z,21.48
2023-01-13T12:06:02.898Z,18.17
2023-01-13T12:08:58.450Z,15.90
2023-01-13T12:11:33.875Z,20.45
2023-01-13T12:14:19.990Z,21.40
2023-01-13T12:16:49.489Z,20.85
2023-01-13T12:19:26.052Z,23.73
2023-01-13T12:21:58.301Z,24.33
2023-01-13T12:24:41.246Z,18.73
2023-01-13T12:27:26.105Z,18.48
2023-01-13T12:29:58.216Z,19.58
2023-01-13T12:32:34.406Z,24.73
2023-01-13T12:35:07.115Z,28.65
2023-01-13T12:37:58.254Z,33.92
2023-01-13T12:40:38.523Z,29.35
2023-01-13T12:43:38.360Z,31.15
2023-01-13T12:46:20.942Z,36.63
2023-01-13T12:48:55.223Z,41.60
2023-01-13T12:53:56.382Z,35.08
2023-01-13T12:56:36.513Z,31.00
2023-01-13T12:59:21.288Z,31.05
2023-01-13T13:01:50.409Z,32.20
2023-01-13T13:04:41.671Z,40.35
2023-01-13T13:07:12.897Z,37.63
2023-01-13T13:10:16.420Z,33.30
2023-01-13T13:13:01.071Z,38.20
2023-01-13T13:15:35.646Z,36.47
2023-01-13T13:18:08.531Z,37.58
2023-01-13T13:21:11.986Z,38.90
2023-01-13T13:23:56.537Z,37.30
2023-01-13T13:29:25.093Z,39.13
2023-01-13T13:32:29.118Z,43.45
2023-01-13T13:35:31.955Z,47.22
2023-01-13T13:38:38.393Z,45.42
2023-01-13T13:41:35.608Z,52.20
2023-01-13T13:44:31.546Z,43.03
2023-01-13T13:47:02.095Z,49.35
2023-01-13T13:49:46.695Z,46.75
2023-01-13T13:54:58.174Z,35.72
2023-01-13T13:57:40.660Z,49.25
2023-01-13T14:00:20.171Z,45.60
2023-01-13T14:03:28.655Z,48.13
2023-01-13T14:05:59.332Z,46.00
2023-01-13T14:08:28.250Z,49.40
2023-01-13T14:10:54.841Z,48.22
2023-01-13T14:13:23.961Z,45.30
2023-01-13T14:15:59.614Z,43.25
2023-01-13T14:18:27.933Z,38.42
2023-01-13T14:21:03.827Z,44.78
2023-01-13T14:23:33.178Z,48.42
2023-01-13T14:26:08.522Z,43.38
2023-01-13T14:28:40.160Z,43.25
2023-01-13T14:31:09.354Z,35.00
2023-01-13T14:33:42.737Z,35.50
2023-01-13T14:36:15.539Z,31.67
2023-01-13T14:38:43.927Z,32.03
2023-01-13T14:41:19.133Z,30.90
2023-01-13T14:43:47.318Z,35.75
2023-01-13T14:46:14.493Z,39.47
2023-01-13T14:48:46.933Z,41.22
2023-01-13T14:51:22.139Z,37.03
2023-01-13T14:53:49.148Z,39.45
2023-01-13T14:56:40.470Z,37.58
2023-01-13T14:59:40.166Z,40.03
2023-01-13T15:02:24.734Z,39.13
2023-01-13T15:07:27.209Z,38.83
2023-01-13T15:09:57.604Z,39.63
2023-01-13T15:12:36.215Z,39.83
2023-01-13T15:15:19.768Z,38.78
2023-01-13T15:17:49.033Z,39.28
2023-01-13T15:20:17.157Z,38.10
2023-01-13T15:22:43.542Z,37.63
2023-01-13T15:25:10.556Z,41.30
2023-01-13T15:27:38.278Z,37.90
2023-01-13T15:30:15.174Z,36.72
2023-01-13T15:32:42.085Z,38.95
2023-01-13T15:35:14.208Z,31.25
2023-01-13T15:37:42.403Z,30.27
2023-01-13T15:40:14.204Z,32.70
2023-01-13T15:42:59.327Z,33.00
2023-01-13T15:45:45.285Z,32.95
2023-01-13T15:48:11.992Z,47.80
2023-01-13T15:50:38.397Z,44.40
2023-01-13T15:53:05.730Z,41.38
2023-01-13T15:55:38.001Z,46.95
2023-01-13T15:58:05.212Z,41.42
2023-01-13T16:00:31.923Z,42.15
2023-01-13T16:02:59.709Z,48.80
2023-01-13T16:05:26.150Z,39.90
2023-01-13T16:07:52.505Z,42.33
2023-01-13T16:10:27.513Z,50.45
2023-01-13T16:12:57.290Z,48.38
2023-01-13T16:15:24.815Z,41.58
2023-01-13T16:17:59.894Z,42.72
2023-01-13T16:20:27.125Z,36.83
2023-01-13T16:22:53.487Z,29.17
2023-01-13T16:25:25.861Z,27.17
2023-01-13T16:27:53.371Z,29.10
2023-01-13T16:30:31.202Z,27.30
2023-01-13T16:32:58.108Z,29.05
2023-01-13T16:35:25.410Z,28.42
2023-01-13T16:37:53.943Z,33.33
2023-01-13T16:40:31.193Z,33.25
2023-01-13T16:43:00.950Z,34.03
2023-01-13T16:45:28.148Z,38.25
2023-01-13T16:47:54.912Z,37.40
2023-01-13T16:50:33.375Z,35.35
2023-01-13T16:52:59.786Z,32.10
2023-01-13T16:55:26.959Z,35.65
2023-01-13T16:57:53.648Z,31.52
2023-01-13T17:00:20.458Z,34.88
2023-01-13T17:02:47.240Z,28.80
2023-01-13T17:05:14.596Z,36.00
2023-01-13T17:07:42.674Z,37.88
2023-01-13T17:10:34.150Z,43.03
2023-01-13T17:15:56.884Z,40.53
2023-01-13T17:18:23.271Z,34.20
2023-01-13T17:20:49.766Z,32.67
2023-01-13T17:23:17.120Z,28.63
2023-01-13T17:26:36.966Z,22.60
2023-01-13T17:29:06.679Z,23.75
2023-01-13T17:31:41.588Z,17.85
2023-01-13T17:34:25.735Z,16.38
2023-01-13T17:36:52.231Z,20.65
2023-01-13T17:39:24.252Z,18.73
2023-01-13T17:41:52.009Z,21.35
2023-01-13T17:44:20.148Z,18.88
2023-01-13T17:46:47.372Z,19.70
2023-01-13T17:49:15.505Z,18.38
2023-01-13T17:51:42.802Z,18.13
2023-01-13T17:54:12.172Z,18.05
2023-01-13T17:56:42.051Z,19.15
2023-01-13T17:59:10.590Z,19.52
2023-01-13T18:01:37.880Z,19.98
2023-01-13T18:04:04.571Z,16.58
2023-01-13T18:06:30.931Z,19.52
2023-01-13T18:08:59.542Z,16.70
2023-01-13T18:11:26.935Z,20.00
2023-01-13T18:13:56.610Z,12.18
2023-01-13T18:16:25.079Z,14.82
2023-01-13T18:18:53.470Z,17.88
2023-01-13T18:21:43.223Z,11.80
2023-01-13T18:24:33.058Z,12.15
2023-01-13T18:27:18.282Z,10.57
2023-01-13T18:29:45.812Z,15.52
2023-01-13T18:32:12.264Z,14.20
2023-01-13T18:34:39.061Z,17.45
2023-01-13T18:37:06.926Z,15.15
2023-01-13T18:39:33.506Z,12.15
2023-01-13T18:42:18.750Z,13.40
2023-01-13T18:44:45.120Z,15.00
2023-01-13T18:47:11.497Z,14.07
2023-01-13T18:49:37.902Z,14.23
2023-01-13T18:52:04.512Z,18.08
2023-01-13T18:54:30.952Z,18.55
2023-01-13T18:56:57.323Z,12.13
2023-01-13T18:59:25.050Z,11.60
2023-01-13T19:01:51.820Z,14.35
2023-01-13T19:04:18.294Z,14.30
2023-01-13T19:06:51.458Z,14.50
2023-01-13T19:09:20.477Z,14.43
2023-01-13T19:11:46.872Z,15.45
2023-01-13T19:14:33.839Z,13.18
2023-01-13T19:17:01.822Z,12.98
2023-01-13T19:19:28.747Z,16.73
2023-01-13T19:21:56.284Z,19.23
2023-01-13T19:24:23.351Z,20.20
2023-01-13T19:26:49.778Z,16.65
2023-01-13T19:29:16.122Z,15.90
2023-01-13T19:31:42.486Z,15.88
2023-01-13T19:34:09.076Z,20.77
2023-01-13T19:36:37.872Z,20.27
2023-01-13T19:39:04.348Z,18.50
2023-01-13T19:41:49.118Z,21.08
2023-01-13T19:44:33.963Z,23.23
2023-01-13T19:47:00.281Z,17.48
2023-01-13T19:49:26.657Z,19.55
2023-01-13T19:51:52.987Z,20.00
2023-01-13T19:54:19.354Z,17.02
2023-01-13T19:56:45.723Z,15.70
2023-01-13T19:59:18.936Z,22.23
2023-01-13T20:01:49.728Z,19.45
2023-01-13T20:04:19.262Z,22.63
2023-01-13T20:06:46.433Z,20.80
2023-01-13T20:09:12.799Z,22.17
2023-01-13T20:11:39.241Z,22.42
2023-01-13T20:14:05.710Z,18.92
2023-01-13T20:16:34.889Z,23.60
2023-01-13T20:19:01.337Z,22.58
2023-01-13T20:21:27.824Z,21.63
2023-01-13T20:23:54.228Z,20.00
2023-01-13T20:26:20.730Z,20.52
2023-01-13T20:28:47.914Z,22.05
2023-01-13T20:31:15.445Z,23.50
2023-01-13T20:33:42.580Z,22.08
2023-01-13T20:36:27.198Z,15.23
2023-01-13T20:41:43.194Z,18.60
2023-01-13T20:44:11.515Z,21.50
2023-01-13T20:46:39.736Z,25.77
2023-01-13T20:49:06.299Z,25.90
2023-01-13T20:51:32.622Z,20.73
2023-01-13T20:53:59.040Z,22.08
2023-01-13T20:56:25.400Z,22.35
2023-01-13T20:58:51.748Z,23.90
2023-01-13T21:01:18.236Z,20.23
2023-01-13T21:03:44.971Z,20.45
2023-01-13T21:06:11.877Z,30.77
2023-01-13T21:08:38.398Z,20.73
2023-01-13T21:11:06.156Z,22.60
2023-01-13T21:13:51.192Z,28.48
2023-01-13T21:16:17.744Z,23.77
2023-01-13T21:19:02.836Z,27.40
2023-01-13T21:21:29.447Z,26.50
2023-01-13T21:23:55.884Z,19.27
2023-01-13T21:26:22.842Z,27.90
2023-01-13T21:28:49.975Z,24.38
2023-01-13T21:31:17.077Z,21.08
2023-01-13T21:33:43.951Z,22.42
2023-01-13T21:36:14.897Z,20.10
2023-01-13T21:38:41.303Z,19.63
2023-01-13T21:41:08.777Z,28.05
2023-01-13T21:43:55.792Z,29.48
2023-01-13T21:46:42.547Z,26.50
2023-01-13T21:49:09.531Z,24.20
2023-01-13T21:51:36.471Z,29.73
2023-01-13T21:54:02.872Z,29.05
2023-01-13T21:56:29.248Z,26.73
2023-01-13T21:58:58.479Z,24.23
2023-01-13T22:01:24.865Z,25.00
2023-01-13T22:04:09.876Z,29.80
2023-01-13T22:06:36.317Z,28.38
2023-01-13T22:09:02.792Z,26.60
2023-01-13T22:11:29.209Z,27.20
2023-01-13T22:14:09.643Z,30.35
2023-01-13T22:16:39.439Z,22.25
2023-01-13T22:19:07.560Z,27.17
2023-01-13T22:21:34.017Z,22.85
2023-01-13T22:24:01.027Z,25.38
2023-01-13T22:26:27.862Z,27.10
2023-01-13T22:28:54.484Z,28.02
2023-01-13T22:31:24.029Z,27.05
2023-01-13T22:33:58.457Z,27.73
2023-01-13T22:36:34.661Z,26.92
2023-01-13T22:39:01.136Z,29.83
2023-01-13T22:41:27.483Z,22.13
2023-01-13T22:43:53.879Z,28.13
2023-01-13T22:46:20.429Z,31.08
2023-01-13T22:48:48.255Z,26.15
2023-01-13T22:51:16.161Z,26.88
2023-01-13T22:53:43.348Z,29.25
2023-01-13T22:56:16.669Z,24.85
2023-01-13T22:58:44.084Z,22.00
2023-01-13T23:01:14.659Z,28.35
2023-01-13T23:03:41.841Z,25.80
2023-01-13T23:06:08.456Z,28.90
2023-01-13T23:08:35.104Z,26.27
2023-01-13T23:11:08.180Z,24.02
2023-01-13T23:13:35.882Z,32.08
2023-01-13T23:16:03.909Z,30.35
2023-01-13T23:18:30.435Z,27.58
2023-01-13T23:20:56.770Z,34.03
2023-01-13T23:23:24.448Z,24.95
2023-01-13T23:25:53.502Z,28.45
2023-01-13T23:28:21.155Z,26.13
2023-01-13T23:30:48.267Z,25.98
2023-01-13T23:33:15.119Z,23.88
2023-01-13T23:35:41.496Z,25.25
2023-01-13T23:38:07.845Z,25.92
2023-01-13T23:40:34.674Z,23.30
2023-01-13T23:43:01.499Z,33.95
2023-01-13T23:45:27.854Z,25.60
2023-01-13T23:47:55.716Z,32.60
2023-01-13T23:50:22.091Z,32.17
2023-01-13T23:52:48.529Z,29.00
2023-01-13T23:55:14.965Z,27.80
2023-01-13T23:57:42.476Z,28.77
